createdAt,value
2022-10-18T00:01:28.629Z,11.48
2022-10-18T00:03:58.004Z,11.40
2022-10-18T00:06:27.224Z,10.80
2022-10-18T00:08:56.399Z,10.18
2022-10-18T00:11:25.442Z,9.93
2022-10-18T00:13:54.430Z,10.60
2022-10-18T00:16:23.548Z,9.70
2022-10-18T00:18:52.646Z,9.95
2022-10-18T00:21:24.325Z,9.50
2022-10-18T00:23:54.656Z,9.02
2022-10-18T00:26:27.243Z,9.98
2022-10-18T00:28:59.594Z,9.68
2022-10-18T00:31:31.995Z,10.10
2022-10-18T00:34:07.076Z,11.05
2022-10-18T00:36:36.646Z,10.17
2022-10-18T00:39:07.844Z,9.70
2022-10-18T00:41:38.877Z,10.00
2022-10-18T00:44:14.077Z,10.25
2022-10-18T00:46:46.282Z,10.38
2022-10-18T00:49:46.129Z,11.55
2022-10-18T00:52:20.588Z,10.48
2022-10-18T00:54:52.889Z,10.77
2022-10-18T00:57:22.364Z,10.70
2022-10-18T00:59:51.712Z,10.88
2022-10-18T01:02:20.846Z,10.73
2022-10-18T01:04:50.454Z,10.82
2022-10-18T01:07:39.703Z,10.73
2022-10-18T01:10:33.449Z,11.77
2022-10-18T01:13:40.162Z,11.95
2022-10-18T01:16:33.532Z,12.43
2022-10-18T01:19:20.512Z,11.43
2022-10-18T01:22:17.176Z,11.88
2022-10-18T01:25:24.886Z,12.32
2022-10-18T01:28:21.851Z,12.88
2022-10-18T01:31:22.871Z,11.88
2022-10-18T01:34:03.870Z,11.30
2022-10-18T01:36:43.827Z,12.18
2022-10-18T01:39:26.704Z,11.82
2022-10-18T01:41:57.605Z,13.00
2022-10-18T01:44:29.211Z,12.95
2022-10-18T01:46:59.199Z,12.55
2022-10-18T01:49:28.716Z,12.15
2022-10-18T01:51:57.710Z,13.00
2022-10-18T01:54:38.550Z,12.48
2022-10-18T01:57:20.140Z,12.73
2022-10-18T02:00:07.272Z,12.13
2022-10-18T02:03:13.744Z,13.02
2022-10-18T02:06:20.051Z,15.18
2022-10-18T02:08:53.970Z,16.48
2022-10-18T02:11:23.626Z,16.75
2022-10-18T02:13:57.707Z,16.38
2022-10-18T02:16:44.887Z,16.20
2022-10-18T02:19:45.185Z,15.82
2022-10-18T02:22:16.073Z,15.80
2022-10-18T02:24:54.690Z,12.88
2022-10-18T02:27:24.393Z,13.40
2022-10-18T02:29:54.406Z,12.57
2022-10-18T02:32:50.971Z,13.52
2022-10-18T02:35:45.606Z,14.83
2022-10-18T02:38:17.400Z,12.93
2022-10-18T02:40:46.995Z,13.85
2022-10-18T02:43:16.403Z,14.05
2022-10-18T02:45:45.532Z,14.38
2022-10-18T02:48:14.561Z,15.27
2022-10-18T02:50:45.776Z,15.85
2022-10-18T02:53:14.912Z,14.48
2022-10-18T02:55:44.293Z,15.20
2022-10-18T02:58:13.252Z,20.17
2022-10-18T03:00:42.390Z,21.50
2022-10-18T03:03:11.374Z,19.00
2022-10-18T03:05:40.469Z,18.08
2022-10-18T03:08:09.566Z,17.40
2022-10-18T03:10:38.618Z,16.85
2022-10-18T03:13:07.617Z,15.18
2022-10-18T03:15:36.996Z,15.68
2022-10-18T03:18:06.234Z,14.63
2022-10-18T03:20:36.396Z,15.35
2022-10-18T03:23:05.666Z,15.32
2022-10-18T03:25:35.475Z,15.23
2022-10-18T03:28:05.149Z,15.52
2022-10-18T03:30:34.229Z,15.23
2022-10-18T03:33:07.643Z,14.63
2022-10-18T03:35:36.958Z,15.25
2022-10-18T03:38:05.988Z,15.10
2022-10-18T03:40:35.315Z,13.68
2022-10-18T03:43:05.316Z,14.88
2022-10-18T03:45:34.359Z,16.23
2022-10-18T03:48:03.676Z,16.48
2022-10-18T03:50:32.739Z,16.17
2022-10-18T03:53:01.760Z,16.77
2022-10-18T03:55:30.879Z,16.95
2022-10-18T03:57:59.962Z,16.88
2022-10-18T04:00:30.340Z,17.65
2022-10-18T04:02:59.308Z,22.65
2022-10-18T04:05:31.561Z,24.48
2022-10-18T04:08:00.618Z,26.85
2022-10-18T04:10:31.375Z,26.80
2022-10-18T04:13:00.579Z,30.75
2022-10-18T04:15:30.295Z,25.20
2022-10-18T04:17:59.467Z,25.35
2022-10-18T04:20:30.457Z,19.75
2022-10-18T04:22:59.834Z,20.73
2022-10-18T04:25:30.198Z,22.35
2022-10-18T04:27:59.384Z,25.35
2022-10-18T04:30:28.431Z,21.33
2022-10-18T04:32:57.446Z,21.00
2022-10-18T04:35:26.925Z,18.17
2022-10-18T04:37:56.551Z,14.88
2022-10-18T04:40:28.271Z,15.48
2022-10-18T04:42:57.380Z,15.23
2022-10-18T04:45:26.830Z,16.73
2022-10-18T04:47:55.924Z,15.57
2022-10-18T04:50:24.962Z,18.55
2022-10-18T04:52:54.407Z,20.52
2022-10-18T04:55:23.519Z,19.50
2022-10-18T04:57:53.567Z,20.23
2022-10-18T05:00:22.667Z,25.80
2022-10-18T05:02:51.893Z,25.27
2022-10-18T05:05:21.011Z,24.27
2022-10-18T05:07:49.949Z,25.25
2022-10-18T05:10:19.126Z,25.02
2022-10-18T05:12:48.302Z,29.85
2022-10-18T05:15:17.630Z,28.75
2022-10-18T05:17:46.602Z,28.67
2022-10-18T05:20:15.688Z,24.75
2022-10-18T05:22:44.851Z,16.85
2022-10-18T05:25:14.068Z,15.73
2022-10-18T05:27:43.056Z,15.52
2022-10-18T05:30:12.441Z,14.27
2022-10-18T05:32:41.488Z,13.90
2022-10-18T05:35:10.702Z,13.77
2022-10-18T05:37:40.010Z,13.38
2022-10-18T05:40:15.708Z,14.55
2022-10-18T05:42:44.765Z,13.77
2022-10-18T05:45:13.754Z,17.20
2022-10-18T05:47:42.966Z,18.40
2022-10-18T05:50:12.338Z,17.63
2022-10-18T05:52:41.462Z,15.60
2022-10-18T05:55:10.652Z,14.60
2022-10-18T05:57:39.672Z,16.02
2022-10-18T06:00:09.403Z,15.10
2022-10-18T06:02:40.576Z,13.73
2022-10-18T06:05:09.903Z,12.05
2022-10-18T06:07:38.845Z,12.35
2022-10-18T06:10:08.333Z,13.13
2022-10-18T06:12:37.334Z,12.80
2022-10-18T06:15:06.801Z,14.52
2022-10-18T06:17:35.994Z,18.08
2022-10-18T06:20:05.686Z,21.15
2022-10-18T06:22:35.194Z,21.65
2022-10-18T06:25:05.869Z,18.25
2022-10-18T06:27:38.661Z,15.15
2022-10-18T06:30:08.525Z,12.02
2022-10-18T06:32:37.639Z,12.20
2022-10-18T06:35:07.377Z,12.15
2022-10-18T06:37:40.549Z,11.90
2022-10-18T06:40:10.810Z,12.63
2022-10-18T06:42:40.016Z,11.93
2022-10-18T06:45:10.211Z,12.23
2022-10-18T06:47:39.194Z,13.20
2022-10-18T06:50:09.010Z,12.73
2022-10-18T06:52:38.079Z,12.63
2022-10-18T06:55:09.208Z,12.25
2022-10-18T06:57:38.391Z,13.57
2022-10-18T07:00:07.770Z,13.80
2022-10-18T07:02:38.354Z,13.30
2022-10-18T07:05:08.218Z,13.60
2022-10-18T07:07:37.310Z,13.25
2022-10-18T07:10:09.261Z,13.95
2022-10-18T07:12:40.370Z,15.57
2022-10-18T07:15:09.770Z,14.10
2022-10-18T07:17:38.830Z,14.30
2022-10-18T07:20:08.298Z,13.93
2022-10-18T07:22:39.049Z,13.77
2022-10-18T07:25:08.496Z,12.88
2022-10-18T07:27:43.509Z,14.65
2022-10-18T07:30:13.240Z,14.02
2022-10-18T07:32:42.339Z,14.32
2022-10-18T07:37:41.255Z,15.18
2022-10-18T07:40:12.387Z,14.50
2022-10-18T07:42:41.628Z,14.38
2022-10-18T07:45:11.322Z,14.60
2022-10-18T07:47:41.151Z,15.40
2022-10-18T07:50:10.969Z,15.07
2022-10-18T07:52:40.192Z,15.63
2022-10-18T07:55:09.297Z,14.27
2022-10-18T07:57:38.375Z,15.70
2022-10-18T08:00:09.750Z,16.20
2022-10-18T08:02:40.246Z,17.65
2022-10-18T08:05:09.688Z,18.17
2022-10-18T08:07:38.680Z,16.95
2022-10-18T08:10:08.219Z,18.42
2022-10-18T08:12:37.329Z,18.52
2022-10-18T08:15:08.190Z,19.35
2022-10-18T08:17:37.328Z,18.90
2022-10-18T08:20:12.271Z,19.75
2022-10-18T08:22:54.550Z,20.65
2022-10-18T08:25:26.983Z,19.33
2022-10-18T08:27:56.308Z,18.15
2022-10-18T08:30:25.365Z,20.02
2022-10-18T08:32:54.543Z,20.13
2022-10-18T08:35:23.761Z,19.23
2022-10-18T08:37:52.858Z,19.23
2022-10-18T08:40:22.129Z,20.48
2022-10-18T08:42:51.704Z,20.73
2022-10-18T08:45:37.459Z,21.15
2022-10-18T08:48:22.667Z,21.50
2022-10-18T08:50:55.519Z,20.40
2022-10-18T08:53:31.393Z,22.25
2022-10-18T08:56:15.782Z,22.63
2022-10-18T08:58:45.862Z,23.15
2022-10-18T09:01:51.180Z,22.98
2022-10-18T09:04:48.320Z,23.40
2022-10-18T09:07:38.675Z,21.85
2022-10-18T09:10:55.678Z,23.42
2022-10-18T09:14:11.489Z,23.83
2022-10-18T09:16:51.732Z,25.60
2022-10-18T09:19:25.891Z,26.73
2022-10-18T09:21:59.403Z,24.63
2022-10-18T09:25:06.326Z,24.90
2022-10-18T09:27:54.263Z,24.95
2022-10-18T09:30:38.030Z,25.15
2022-10-18T09:33:17.516Z,26.63
2022-10-18T09:36:00.099Z,27.45
2022-10-18T09:38:35.479Z,26.88
2022-10-18T09:41:36.589Z,27.13
2022-10-18T09:44:38.594Z,25.92
2022-10-18T09:47:31.973Z,27.45
2022-10-18T09:50:18.817Z,27.92
2022-10-18T09:53:05.476Z,26.55
2022-10-18T09:55:39.857Z,28.45
2022-10-18T09:58:12.741Z,28.20
2022-10-18T10:00:54.008Z,27.40
2022-10-18T10:03:23.047Z,26.63
2022-10-18T10:06:04.161Z,26.60
2022-10-18T10:08:36.356Z,27.63
2022-10-18T10:11:05.699Z,27.50
2022-10-18T10:13:34.850Z,26.63
2022-10-18T10:16:04.449Z,29.45
2022-10-18T10:18:37.540Z,28.88
2022-10-18T10:21:14.383Z,27.58
2022-10-18T10:23:54.036Z,26.48
2022-10-18T10:26:23.740Z,26.63
2022-10-18T10:28:53.219Z,28.10
2022-10-18T10:31:30.717Z,27.73
2022-10-18T10:34:01.401Z,27.58
2022-10-18T10:36:31.648Z,26.02
2022-10-18T10:39:22.326Z,26.17
2022-10-18T10:41:58.007Z,26.13
2022-10-18T10:44:30.381Z,25.27
2022-10-18T10:47:00.438Z,24.83
2022-10-18T10:49:47.146Z,23.77
2022-10-18T10:52:28.015Z,23.70
2022-10-18T10:57:52.243Z,26.65
2022-10-18T11:00:38.458Z,26.48
2022-10-18T11:03:28.638Z,25.92
2022-10-18T11:06:01.542Z,25.48
2022-10-18T11:11:32.905Z,26.73
2022-10-18T11:14:27.275Z,25.23
2022-10-18T11:17:08.492Z,25.65
2022-10-18T11:20:05.979Z,26.83
2022-10-18T11:22:55.163Z,27.92
2022-10-18T11:25:30.159Z,27.58
2022-10-18T11:28:11.354Z,26.38
2022-10-18T11:30:59.780Z,25.38
2022-10-18T11:34:09.647Z,28.05
2022-10-18T11:36:56.291Z,27.52
2022-10-18T11:39:56.602Z,26.88
2022-10-18T11:42:52.967Z,26.38
2022-10-18T11:48:07.597Z,26.48
2022-10-18T11:50:50.279Z,26.45
2022-10-18T11:53:37.640Z,27.60
2022-10-18T11:56:18.938Z,27.02
2022-10-18T11:58:58.162Z,26.08
2022-10-18T12:01:58.176Z,27.92
2022-10-18T12:04:34.881Z,28.20
2022-10-18T12:07:08.268Z,29.33
2022-10-18T12:09:44.590Z,27.92
2022-10-18T12:12:33.902Z,27.52
2022-10-18T12:15:25.031Z,28.02
2022-10-18T12:17:57.286Z,27.15
2022-10-18T12:20:39.488Z,27.83
2022-10-18T12:23:31.352Z,26.23
2022-10-18T12:26:09.352Z,27.13
2022-10-18T12:29:15.139Z,25.70
2022-10-18T12:31:56.213Z,25.85
2022-10-18T12:34:37.299Z,26.23
2022-10-18T12:37:36.820Z,24.95
2022-10-18T12:40:28.628Z,24.60
2022-10-18T12:42:58.480Z,24.63
2022-10-18T12:45:36.569Z,26.30
2022-10-18T12:48:09.855Z,25.08
2022-10-18T12:50:42.795Z,25.20
2022-10-18T12:53:13.167Z,24.52
2022-10-18T12:55:45.573Z,24.88
2022-10-18T12:58:15.009Z,25.75
2022-10-18T13:00:44.052Z,26.45
2022-10-18T13:03:19.001Z,26.77
2022-10-18T13:05:55.305Z,26.88
2022-10-18T13:08:42.734Z,27.60
2022-10-18T13:11:11.843Z,27.08
2022-10-18T13:13:52.772Z,26.85
2022-10-18T13:16:33.193Z,26.75
2022-10-18T13:19:24.038Z,27.95
2022-10-18T13:22:26.448Z,25.80
2022-10-18T13:25:16.751Z,26.83
2022-10-18T13:27:59.027Z,27.40
2022-10-18T13:30:49.116Z,28.42
2022-10-18T13:33:30.284Z,29.25
2022-10-18T13:36:06.308Z,27.60
2022-10-18T13:39:00.454Z,29.40
2022-10-18T13:41:34.553Z,29.60
2022-10-18T13:44:38.139Z,27.52
2022-10-18T13:47:07.886Z,26.58
2022-10-18T13:49:40.085Z,26.17
2022-10-18T13:52:15.165Z,26.52
2022-10-18T13:55:02.897Z,27.00
2022-10-18T13:57:47.137Z,28.00
2022-10-18T14:00:36.135Z,28.40
2022-10-18T14:03:37.874Z,31.42
2022-10-18T14:06:26.308Z,29.13
2022-10-18T14:09:14.155Z,30.25
2022-10-18T14:12:18.428Z,29.77
2022-10-18T14:15:10.370Z,31.25
2022-10-18T14:18:01.384Z,31.35
2022-10-18T14:20:49.436Z,35.60
2022-10-18T14:23:30.542Z,32.65
2022-10-18T14:26:19.666Z,38.10
2022-10-18T14:29:04.584Z,40.92
2022-10-18T14:31:34.406Z,46.67
2022-10-18T14:34:04.461Z,46.22
2022-10-18T14:36:42.605Z,45.33
2022-10-18T14:39:21.976Z,44.38
2022-10-18T14:41:56.520Z,45.45
2022-10-18T14:44:31.666Z,47.90
2022-10-18T14:47:15.014Z,53.70
2022-10-18T14:49:45.519Z,56.45
2022-10-18T14:52:21.126Z,59.80
2022-10-18T14:54:52.307Z,58.03
2022-10-18T14:57:26.192Z,57.42
2022-10-18T15:00:02.760Z,55.53
2022-10-18T15:02:36.273Z,56.38
2022-10-18T15:05:27.788Z,63.92
2022-10-18T15:08:00.484Z,59.95
2022-10-18T15:10:34.697Z,57.47
2022-10-18T15:13:10.923Z,62.53
2022-10-18T15:18:20.424Z,63.40
2022-10-18T15:21:21.893Z,67.43
2022-10-18T15:23:52.210Z,65.90
2022-10-18T15:26:30.482Z,67.22
2022-10-18T15:29:02.978Z,66.43
2022-10-18T15:31:38.309Z,64.25
2022-10-18T15:34:11.956Z,65.13
2022-10-18T15:36:41.084Z,65.53
2022-10-18T15:39:16.090Z,62.78
2022-10-18T15:41:54.980Z,59.72
2022-10-18T15:44:33.009Z,61.55
2022-10-18T15:47:22.171Z,60.97
2022-10-18T15:49:59.506Z,56.85
2022-10-18T15:52:44.206Z,53.20
2022-10-18T15:55:31.665Z,59.55
2022-10-18T16:00:37.195Z,50.63
2022-10-18T16:03:10.043Z,52.85
2022-10-18T16:05:39.963Z,52.08
2022-10-18T16:08:37.912Z,53.58
2022-10-18T16:11:07.423Z,50.25
2022-10-18T16:13:36.445Z,50.88
2022-10-18T16:16:05.691Z,53.80
2022-10-18T16:18:35.114Z,52.72
2022-10-18T16:21:04.235Z,49.92
2022-10-18T16:23:33.332Z,50.55
2022-10-18T16:26:02.458Z,47.90
2022-10-18T16:28:32.605Z,49.55
2022-10-18T16:31:04.826Z,48.72
2022-10-18T16:33:34.032Z,47.72
2022-10-18T16:36:02.977Z,47.95
2022-10-18T16:38:35.608Z,48.10
2022-10-18T16:41:07.163Z,47.28
2022-10-18T16:43:37.467Z,48.30
2022-10-18T16:46:08.078Z,47.00
2022-10-18T16:48:37.601Z,48.28
2022-10-18T16:51:06.920Z,49.15
2022-10-18T16:53:36.056Z,49.90
2022-10-18T16:56:07.623Z,47.55
2022-10-18T16:58:38.471Z,48.13
2022-10-18T17:01:08.994Z,47.63
2022-10-18T17:03:39.290Z,48.08
2022-10-18T17:06:25.400Z,43.35
2022-10-18T17:08:55.466Z,40.80
2022-10-18T17:11:27.533Z,40.17
2022-10-18T17:13:57.027Z,39.40
2022-10-18T17:16:31.600Z,37.05
2022-10-18T17:19:04.147Z,34.80
2022-10-18T17:21:34.505Z,35.17
2022-10-18T17:24:09.101Z,34.53
2022-10-18T17:26:38.611Z,34.22
2022-10-18T17:29:10.995Z,34.88
2022-10-18T17:31:42.765Z,32.10
2022-10-18T17:34:12.005Z,33.03
2022-10-18T17:36:41.631Z,34.00
2022-10-18T17:39:10.865Z,37.45
2022-10-18T17:41:39.870Z,38.42
2022-10-18T17:44:09.423Z,39.80
2022-10-18T17:46:38.504Z,37.63
2022-10-18T17:49:07.623Z,38.35
2022-10-18T17:51:36.921Z,43.58
2022-10-18T17:54:08.005Z,48.28
2022-10-18T17:56:37.814Z,50.95
2022-10-18T17:59:07.052Z,55.13
2022-10-18T18:01:36.728Z,55.03
2022-10-18T18:04:06.266Z,56.47
2022-10-18T18:06:39.819Z,55.90
2022-10-18T18:09:18.017Z,56.58
2022-10-18T18:11:50.511Z,56.08
2022-10-18T18:14:23.058Z,59.22
2022-10-18T18:16:55.131Z,60.95
2022-10-18T18:19:25.267Z,61.72
2022-10-18T18:21:55.863Z,62.75
2022-10-18T18:24:25.673Z,66.38
2022-10-18T18:26:57.466Z,65.10
2022-10-18T18:29:28.402Z,65.30
2022-10-18T18:31:58.013Z,61.80
2022-10-18T18:34:27.257Z,61.92
2022-10-18T18:36:56.432Z,62.03
2022-10-18T18:39:31.541Z,62.92
2022-10-18T18:42:00.683Z,60.53
2022-10-18T18:44:30.564Z,61.08
2022-10-18T18:47:00.052Z,60.05
2022-10-18T18:49:32.213Z,57.28
2022-10-18T18:52:01.444Z,58.42
2022-10-18T18:54:31.234Z,61.72
2022-10-18T18:57:00.470Z,62.90
2022-10-18T18:59:29.474Z,57.05
2022-10-18T19:01:58.512Z,60.13
2022-10-18T19:04:29.833Z,57.45
2022-10-18T19:06:59.162Z,64.07
2022-10-18T19:09:28.458Z,67.85
2022-10-18T19:11:57.691Z,65.00
2022-10-18T19:14:26.887Z,64.72
2022-10-18T19:16:59.692Z,55.63
2022-10-18T19:19:31.991Z,61.50
2022-10-18T19:22:05.333Z,65.05
2022-10-18T19:24:34.506Z,59.60
2022-10-18T19:27:10.477Z,59.28
2022-10-18T19:29:41.325Z,59.47
2022-10-18T19:32:12.999Z,56.42
2022-10-18T19:34:43.491Z,56.72
2022-10-18T19:37:16.445Z,60.90
2022-10-18T19:39:45.548Z,59.40
2022-10-18T19:42:18.694Z,55.25
2022-10-18T19:44:51.966Z,54.25
2022-10-18T19:47:21.436Z,57.30
2022-10-18T19:49:50.612Z,61.42
2022-10-18T19:52:19.737Z,66.90
2022-10-18T19:54:50.602Z,60.60
2022-10-18T19:57:19.929Z,61.40
2022-10-18T19:59:49.270Z,67.57
2022-10-18T20:02:18.514Z,64.63
2022-10-18T20:04:48.688Z,72.85
2022-10-18T20:07:17.994Z,83.75
2022-10-18T20:09:48.814Z,72.45
2022-10-18T20:12:17.961Z,77.95
2022-10-18T20:14:47.019Z,81.38
2022-10-18T20:17:16.569Z,83.57
2022-10-18T20:19:45.620Z,83.60
2022-10-18T20:22:14.886Z,86.72
2022-10-18T20:24:47.438Z,89.75
2022-10-18T20:27:17.024Z,87.28
2022-10-18T20:29:46.406Z,93.40
2022-10-18T20:32:16.242Z,93.30
2022-10-18T20:34:48.599Z,108.53
2022-10-18T20:37:17.789Z,99.00
2022-10-18T20:39:49.783Z,107.22
2022-10-18T20:42:21.748Z,103.55
2022-10-18T20:44:51.002Z,101.07
2022-10-18T20:47:21.980Z,102.30
2022-10-18T20:49:52.840Z,98.25
2022-10-18T20:52:22.467Z,94.30
2022-10-18T20:54:51.823Z,91.25
2022-10-18T20:57:21.245Z,90.15
2022-10-18T20:59:52.739Z,99.25
2022-10-18T21:02:23.044Z,94.90
2022-10-18T21:04:53.108Z,98.07
2022-10-18T21:07:22.186Z,104.60
2022-10-18T21:09:55.280Z,109.13
2022-10-18T21:12:25.531Z,101.75
2022-10-18T21:14:56.787Z,103.90
2022-10-18T21:17:26.003Z,108.63
2022-10-18T21:19:55.273Z,106.72
2022-10-18T21:22:24.357Z,107.40
2022-10-18T21:24:53.563Z,102.53
2022-10-18T21:27:22.629Z,102.68
2022-10-18T21:29:54.448Z,103.60
2022-10-18T21:32:23.635Z,105.57
2022-10-18T21:34:52.695Z,104.28
2022-10-18T21:37:24.851Z,100.07
2022-10-18T21:39:54.089Z,104.35
2022-10-18T21:42:23.316Z,99.13
2022-10-18T21:44:52.930Z,99.45
2022-10-18T21:47:22.025Z,100.03
2022-10-18T21:49:51.185Z,102.00
2022-10-18T21:52:20.581Z,102.47
2022-10-18T21:54:49.582Z,102.20
2022-10-18T21:57:19.439Z,101.20
2022-10-18T21:59:48.686Z,102.88
2022-10-18T22:02:17.711Z,97.93
2022-10-18T22:04:47.798Z,103.15
2022-10-18T22:07:17.426Z,99.05
2022-10-18T22:09:46.701Z,102.40
2022-10-18T22:12:16.024Z,101.00
2022-10-18T22:14:45.260Z,103.60
2022-10-18T22:17:14.297Z,103.95
2022-10-18T22:19:48.131Z,101.78
2022-10-18T22:22:17.413Z,103.90
2022-10-18T22:24:46.471Z,102.38
2022-10-18T22:27:15.616Z,103.38
2022-10-18T22:29:46.988Z,103.68
2022-10-18T22:32:16.177Z,103.95
2022-10-18T22:34:45.232Z,98.60
2022-10-18T22:37:14.343Z,101.47
2022-10-18T22:39:46.140Z,99.68
2022-10-18T22:42:15.294Z,99.07
2022-10-18T22:44:46.715Z,99.35
2022-10-18T22:47:16.130Z,98.28
2022-10-18T22:49:46.080Z,98.82
2022-10-18T22:52:15.176Z,104.55
2022-10-18T22:54:47.392Z,98.97
2022-10-18T22:57:18.099Z,103.03
2022-10-18T22:59:47.400Z,101.78
2022-10-18T23:02:18.998Z,100.65
2022-10-18T23:04:50.113Z,102.38
2022-10-18T23:07:19.522Z,99.90
2022-10-18T23:09:48.817Z,101.28
2022-10-18T23:12:19.014Z,96.28
2022-10-18T23:14:51.111Z,97.78
2022-10-18T23:17:20.432Z,94.00
2022-10-18T23:19:52.302Z,96.35
2022-10-18T23:22:24.412Z,92.20
2022-10-18T23:24:53.703Z,92.80
2022-10-18T23:27:22.808Z,94.20
2022-10-18T23:29:52.086Z,92.15
2022-10-18T23:32:24.414Z,92.82
2022-10-18T23:34:53.727Z,93.55
2022-10-18T23:37:23.260Z,94.75
2022-10-18T23:39:53.134Z,89.90
2022-10-18T23:42:22.840Z,94.32
2022-10-18T23:44:52.366Z,89.00
2022-10-18T23:47:21.483Z,91.55
2022-10-18T23:49:50.883Z,91.57
2022-10-18T23:52:20.070Z,92.82
2022-10-18T23:54:49.386Z,95.07
2022-10-18T23:57:18.450Z,90.78
2022-10-18T23:59:47.690Z,88.45
